sensor_id;sensor_type;location;lat;lon;timestamp;P1;durP1;ratioP1;P2;durP2;ratioP2
21927;SDS011;11128;51.096;17.190;2023-05-14T00:01:01;14.88;;;7.68;;
21927;SDS011;11128;51.096;17.190;2023-05-14T00:06:02;15.57;;;8.25;;
21927;SDS011;11128;51.096;17.190;2023-05-14T00:11:04;20.65;;;10.18;;
21927;SDS011;11128;51.096;17.190;2023-05-14T00:16:05;26.27;;;10.80;;
21927;SDS011;11128;51.096;17.190;2023-05-14T00:21:06;22.00;;;10.60;;
21927;SDS011;11128;51.096;17.190;2023-05-14T00:26:07;23.05;;;10.00;;
21927;SDS011;11128;51.096;17.190;2023-05-14T00:31:09;22.13;;;10.68;;
21927;SDS011;11128;51.096;17.190;2023-05-14T00:36:10;20.77;;;9.55;;
21927;SDS011;11128;51.096;17.190;2023-05-14T00:41:11;16.73;;;8.32;;
21927;SDS011;11128;51.096;17.190;2023-05-14T00:46:12;16.35;;;9.05;;
21927;SDS011;11128;51.096;17.190;2023-05-14T00:51:15;18.00;;;8.30;;
21927;SDS011;11128;51.096;17.190;2023-05-14T00:56:17;17.65;;;9.05;;
21927;SDS011;11128;51.096;17.190;2023-05-14T01:01:19;14.23;;;7.82;;
21927;SDS011;11128;51.096;17.190;2023-05-14T01:06:25;25.95;;;12.45;;
21927;SDS011;11128;51.096;17.190;2023-05-14T01:11:41;35.78;;;15.40;;
21927;SDS011;11128;51.096;17.190;2023-05-14T01:17:03;25.75;;;13.50;;
21927;SDS011;11128;51.096;17.190;2023-05-14T01:22:05;21.90;;;10.20;;
21927;SDS011;11128;51.096;17.190;2023-05-14T01:32:30;15.40;;;7.65;;
21927;SDS011;11128;51.096;17.190;2023-05-14T01:37:32;14.35;;;7.65;;
21927;SDS011;11128;51.096;17.190;2023-05-14T01:42:34;13.82;;;7.40;;
21927;SDS011;11128;51.096;17.190;2023-05-14T01:47:36;13.43;;;7.47;;
21927;SDS011;11128;51.096;17.190;2023-05-14T01:52:37;11.82;;;7.35;;
21927;SDS011;11128;51.096;17.190;2023-05-14T01:57:39;13.15;;;8.18;;
21927;SDS011;11128;51.096;17.190;2023-05-14T02:02:40;12.38;;;7.07;;
21927;SDS011;11128;51.096;17.190;2023-05-14T02:07:41;11.02;;;6.85;;
21927;SDS011;11128;51.096;17.190;2023-05-14T02:12:43;13.20;;;7.20;;
21927;SDS011;11128;51.096;17.190;2023-05-14T02:17:44;12.05;;;6.85;;
21927;SDS011;11128;51.096;17.190;2023-05-14T02:22:46;11.63;;;6.85;;
21927;SDS011;11128;51.096;17.190;2023-05-14T02:27:47;12.30;;;6.60;;
21927;SDS011;11128;51.096;17.190;2023-05-14T02:32:49;12.55;;;6.90;;
21927;SDS011;11128;51.096;17.190;2023-05-14T02:37:50;12.65;;;7.10;;
21927;SDS011;11128;51.096;17.190;2023-05-14T02:42:51;13.98;;;7.30;;
21927;SDS011;11128;51.096;17.190;2023-05-14T02:47:52;10.65;;;6.32;;
21927;SDS011;11128;51.096;17.190;2023-05-14T02:52:56;10.38;;;5.95;;
21927;SDS011;11128;51.096;17.190;2023-05-14T02:57:58;14.15;;;6.40;;
21927;SDS011;11128;51.096;17.190;2023-05-14T03:02:59;11.20;;;6.93;;
21927;SDS011;11128;51.096;17.190;2023-05-14T03:08:00;10.65;;;6.85;;
21927;SDS011;11128;51.096;17.190;2023-05-14T03:13:02;10.55;;;6.78;;
21927;SDS011;11128;51.096;17.190;2023-05-14T03:18:03;10.02;;;6.35;;
21927;SDS011;11128;51.096;17.190;2023-05-14T03:23:04;11.52;;;6.93;;
21927;SDS011;11128;51.096;17.190;2023-05-14T03:28:06;10.75;;;6.40;;
21927;SDS011;11128;51.096;17.190;2023-05-14T03:33:07;11.52;;;6.85;;
21927;SDS011;11128;51.096;17.190;2023-05-14T03:38:08;12.38;;;7.55;;
21927;SDS011;11128;51.096;17.190;2023-05-14T03:43:09;10.68;;;6.93;;
21927;SDS011;11128;51.096;17.190;2023-05-14T03:48:11;12.68;;;7.45;;
21927;SDS011;11128;51.096;17.190;2023-05-14T03:53:12;13.48;;;7.68;;
21927;SDS011;11128;51.096;17.190;2023-05-14T03:58:13;12.88;;;7.57;;
21927;SDS011;11128;51.096;17.190;2023-05-14T04:03:15;13.77;;;8.10;;
21927;SDS011;11128;51.096;17.190;2023-05-14T04:08:16;14.57;;;7.90;;
21927;SDS011;11128;51.096;17.190;2023-05-14T04:13:18;15.23;;;8.93;;
21927;SDS011;11128;51.096;17.190;2023-05-14T04:18:19;10.60;;;7.15;;
21927;SDS011;11128;51.096;17.190;2023-05-14T04:23:20;13.27;;;8.13;;
21927;SDS011;11128;51.096;17.190;2023-05-14T04:28:22;12.60;;;8.30;;
21927;SDS011;11128;51.096;17.190;2023-05-14T04:33:23;13.57;;;7.97;;
21927;SDS011;11128;51.096;17.190;2023-05-14T04:38:25;17.50;;;8.80;;
21927;SDS011;11128;51.096;17.190;2023-05-14T04:43:26;15.23;;;8.52;;
21927;SDS011;11128;51.096;17.190;2023-05-14T04:48:27;13.48;;;8.18;;
21927;SDS011;11128;51.096;17.190;2023-05-14T04:53:29;14.38;;;8.20;;
21927;SDS011;11128;51.096;17.190;2023-05-14T04:58:30;12.73;;;7.68;;
21927;SDS011;11128;51.096;17.190;2023-05-14T05:03:32;13.98;;;7.95;;
21927;SDS011;11128;51.096;17.190;2023-05-14T05:08:33;13.13;;;7.57;;
21927;SDS011;11128;51.096;17.190;2023-05-14T05:13:34;10.57;;;7.05;;
21927;SDS011;11128;51.096;17.190;2023-05-14T05:18:36;11.40;;;7.30;;
21927;SDS011;11128;51.096;17.190;2023-05-14T05:23:37;9.38;;;6.53;;
21927;SDS011;11128;51.096;17.190;2023-05-14T05:28:38;12.52;;;6.30;;
21927;SDS011;11128;51.096;17.190;2023-05-14T05:33:40;11.68;;;6.82;;
21927;SDS011;11128;51.096;17.190;2023-05-14T05:38:41;10.68;;;6.43;;
21927;SDS011;11128;51.096;17.190;2023-05-14T05:43:42;13.77;;;6.72;;
21927;SDS011;11128;51.096;17.190;2023-05-14T05:48:44;12.10;;;6.25;;
21927;SDS011;11128;51.096;17.190;2023-05-14T05:53:45;8.77;;;6.18;;
21927;SDS011;11128;51.096;17.190;2023-05-14T05:58:46;10.20;;;5.93;;
21927;SDS011;11128;51.096;17.190;2023-05-14T06:03:48;8.70;;;5.70;;
21927;SDS011;11128;51.096;17.190;2023-05-14T06:08:49;7.78;;;5.53;;
21927;SDS011;11128;51.096;17.190;2023-05-14T06:13:50;7.55;;;4.70;;
21927;SDS011;11128;51.096;17.190;2023-05-14T06:18:52;6.70;;;4.72;;
21927;SDS011;11128;51.096;17.190;2023-05-14T06:23:54;8.52;;;4.50;;
21927;SDS011;11128;51.096;17.190;2023-05-14T06:28:55;6.45;;;4.65;;
21927;SDS011;11128;51.096;17.190;2023-05-14T06:33:56;8.30;;;3.92;;
21927;SDS011;11128;51.096;17.190;2023-05-14T06:38:57;5.57;;;4.05;;
21927;SDS011;11128;51.096;17.190;2023-05-14T06:43:59;5.93;;;3.80;;
21927;SDS011;11128;51.096;17.190;2023-05-14T06:49:00;6.93;;;3.60;;
21927;SDS011;11128;51.096;17.190;2023-05-14T06:54:01;7.32;;;3.33;;
21927;SDS011;11128;51.096;17.190;2023-05-14T06:59:03;6.22;;;3.70;;
21927;SDS011;11128;51.096;17.190;2023-05-14T07:04:04;4.07;;;2.50;;
21927;SDS011;11128;51.096;17.190;2023-05-14T07:09:06;4.47;;;1.92;;
21927;SDS011;11128;51.096;17.190;2023-05-14T07:14:07;1.80;;;1.58;;
21927;SDS011;11128;51.096;17.190;2023-05-14T07:19:08;2.25;;;1.40;;
21927;SDS011;11128;51.096;17.190;2023-05-14T07:24:09;2.38;;;1.40;;
21927;SDS011;11128;51.096;17.190;2023-05-14T07:29:11;2.60;;;1.73;;
21927;SDS011;11128;51.096;17.190;2023-05-14T07:34:12;1.95;;;1.42;;
21927;SDS011;11128;51.096;17.190;2023-05-14T07:39:13;2.33;;;1.88;;
21927;SDS011;11128;51.096;17.190;2023-05-14T07:44:15;2.65;;;1.70;;
21927;SDS011;11128;51.096;17.190;2023-05-14T07:49:16;1.58;;;1.30;;
21927;SDS011;11128;51.096;17.190;2023-05-14T07:54:17;1.20;;;0.90;;
21927;SDS011;11128;51.096;17.190;2023-05-14T07:59:19;2.33;;;1.40;;
21927;SDS011;11128;51.096;17.190;2023-05-14T08:04:21;7.13;;;4.18;;
21927;SDS011;11128;51.096;17.190;2023-05-14T08:09:23;4.03;;;2.95;;
21927;SDS011;11128;51.096;17.190;2023-05-14T08:14:24;4.03;;;1.40;;
21927;SDS011;11128;51.096;17.190;2023-05-14T08:19:25;3.58;;;2.00;;
21927;SDS011;11128;51.096;17.190;2023-05-14T08:24:27;1.95;;;1.30;;
21927;SDS011;11128;51.096;17.190;2023-05-14T08:29:28;1.98;;;1.30;;
21927;SDS011;11128;51.096;17.190;2023-05-14T08:34:30;2.08;;;1.20;;
21927;SDS011;11128;51.096;17.190;2023-05-14T08:39:31;1.35;;;1.05;;
21927;SDS011;11128;51.096;17.190;2023-05-14T08:44:37;3.45;;;1.10;;
21927;SDS011;11128;51.096;17.190;2023-05-14T08:49:45;1.80;;;1.13;;
21927;SDS011;11128;51.096;17.190;2023-05-14T08:54:49;2.78;;;1.70;;
21927;SDS011;11128;51.096;17.190;2023-05-14T08:59:53;2.35;;;1.27;;
21927;SDS011;11128;51.096;17.190;2023-05-14T09:04:56;3.22;;;1.27;;
21927;SDS011;11128;51.096;17.190;2023-05-14T09:09:59;2.28;;;1.30;;
21927;SDS011;11128;51.096;17.190;2023-05-14T09:15:01;1.80;;;1.10;;
21927;SDS011;11128;51.096;17.190;2023-05-14T09:20:03;2.50;;;1.38;;
21927;SDS011;11128;51.096;17.190;2023-05-14T09:25:06;1.70;;;1.05;;
21927;SDS011;11128;51.096;17.190;2023-05-14T09:30:10;2.85;;;1.20;;
21927;SDS011;11128;51.096;17.190;2023-05-14T09:35:16;1.33;;;1.00;;
21927;SDS011;11128;51.096;17.190;2023-05-14T09:40:21;1.63;;;0.80;;
21927;SDS011;11128;51.096;17.190;2023-05-14T09:45:23;1.55;;;1.10;;
21927;SDS011;11128;51.096;17.190;2023-05-14T09:50:24;1.30;;;1.00;;
21927;SDS011;11128;51.096;17.190;2023-05-14T09:55:26;1.38;;;1.02;;
21927;SDS011;11128;51.096;17.190;2023-05-14T10:00:31;1.15;;;0.90;;
21927;SDS011;11128;51.096;17.190;2023-05-14T10:05:34;1.00;;;0.90;;
21927;SDS011;11128;51.096;17.190;2023-05-14T10:10:36;1.40;;;0.77;;
21927;SDS011;11128;51.096;17.190;2023-05-14T10:15:39;2.13;;;0.88;;
21927;SDS011;11128;51.096;17.190;2023-05-14T10:20:59;1.23;;;1.13;;
21927;SDS011;11128;51.096;17.190;2023-05-14T10:26:05;1.27;;;0.93;;
21927;SDS011;11128;51.096;17.190;2023-05-14T10:31:10;1.67;;;1.30;;
21927;SDS011;11128;51.096;17.190;2023-05-14T10:36:12;0.77;;;0.75;;
21927;SDS011;11128;51.096;17.190;2023-05-14T10:41:14;1.10;;;0.93;;
21927;SDS011;11128;51.096;17.190;2023-05-14T10:46:17;2.35;;;1.00;;
21927;SDS011;11128;51.096;17.190;2023-05-14T10:51:18;1.85;;;1.27;;
21927;SDS011;11128;51.096;17.190;2023-05-14T10:56:22;0.95;;;0.90;;
21927;SDS011;11128;51.096;17.190;2023-05-14T11:01:24;3.45;;;1.08;;
21927;SDS011;11128;51.096;17.190;2023-05-14T11:06:28;1.23;;;1.13;;
21927;SDS011;11128;51.096;17.190;2023-05-14T11:11:31;1.42;;;1.10;;
21927;SDS011;11128;51.096;17.190;2023-05-14T11:16:33;1.15;;;1.05;;
21927;SDS011;11128;51.096;17.190;2023-05-14T11:21:35;1.30;;;1.13;;
21927;SDS011;11128;51.096;17.190;2023-05-14T11:26:36;2.00;;;1.33;;
21927;SDS011;11128;51.096;17.190;2023-05-14T11:31:38;1.42;;;1.27;;
21927;SDS011;11128;51.096;17.190;2023-05-14T11:36:40;1.77;;;1.33;;
21927;SDS011;11128;51.096;17.190;2023-05-14T11:41:44;2.28;;;1.70;;
21927;SDS011;11128;51.096;17.190;2023-05-14T11:46:57;1.67;;;1.30;;
21927;SDS011;11128;51.096;17.190;2023-05-14T11:52:02;1.77;;;1.30;;
21927;SDS011;11128;51.096;17.190;2023-05-14T11:57:26;1.40;;;1.30;;
21927;SDS011;11128;51.096;17.190;2023-05-14T12:02:26;2.95;;;1.30;;
21927;SDS011;11128;51.096;17.190;2023-05-14T12:07:29;1.75;;;1.42;;
21927;SDS011;11128;51.096;17.190;2023-05-14T12:12:33;3.35;;;1.50;;
21927;SDS011;11128;51.096;17.190;2023-05-14T12:17:36;3.72;;;1.63;;
21927;SDS011;11128;51.096;17.190;2023-05-14T12:22:40;5.22;;;2.60;;
21927;SDS011;11128;51.096;17.190;2023-05-14T12:27:43;6.72;;;3.03;;
21927;SDS011;11128;51.096;17.190;2023-05-14T12:32:45;4.15;;;2.75;;
21927;SDS011;11128;51.096;17.190;2023-05-14T12:37:48;2.55;;;2.35;;
21927;SDS011;11128;51.096;17.190;2023-05-14T12:42:49;2.58;;;2.33;;
21927;SDS011;11128;51.096;17.190;2023-05-14T12:47:50;4.28;;;3.13;;
21927;SDS011;11128;51.096;17.190;2023-05-14T12:52:51;4.13;;;2.90;;
21927;SDS011;11128;51.096;17.190;2023-05-14T12:57:53;4.72;;;2.60;;
21927;SDS011;11128;51.096;17.190;2023-05-14T13:02:54;5.25;;;2.90;;
21927;SDS011;11128;51.096;17.190;2023-05-14T13:07:57;5.25;;;2.88;;
21927;SDS011;11128;51.096;17.190;2023-05-14T13:12:59;5.18;;;2.50;;
21927;SDS011;11128;51.096;17.190;2023-05-14T13:18:02;2.80;;;2.25;;
21927;SDS011;11128;51.096;17.190;2023-05-14T13:23:04;4.22;;;2.40;;
21927;SDS011;11128;51.096;17.190;2023-05-14T13:28:05;5.53;;;2.25;;
21927;SDS011;11128;51.096;17.190;2023-05-14T13:33:07;6.85;;;2.97;;
21927;SDS011;11128;51.096;17.190;2023-05-14T13:38:09;4.40;;;3.10;;
21927;SDS011;11128;51.096;17.190;2023-05-14T13:43:10;4.15;;;3.05;;
21927;SDS011;11128;51.096;17.190;2023-05-14T13:48:11;5.43;;;2.78;;
21927;SDS011;11128;51.096;17.190;2023-05-14T13:53:13;4.35;;;3.05;;
21927;SDS011;11128;51.096;17.190;2023-05-14T13:58:14;5.65;;;3.25;;
21927;SDS011;11128;51.096;17.190;2023-05-14T14:03:16;5.15;;;3.38;;
21927;SDS011;11128;51.096;17.190;2023-05-14T14:08:17;3.90;;;3.33;;
21927;SDS011;11128;51.096;17.190;2023-05-14T14:13:19;5.85;;;3.15;;
21927;SDS011;11128;51.096;17.190;2023-05-14T14:18:23;5.57;;;3.17;;
21927;SDS011;11128;51.096;17.190;2023-05-14T14:23:24;5.57;;;3.63;;
21927;SDS011;11128;51.096;17.190;2023-05-14T14:28:26;4.72;;;3.03;;
21927;SDS011;11128;51.096;17.190;2023-05-14T14:33:27;5.38;;;3.13;;
21927;SDS011;11128;51.096;17.190;2023-05-14T14:38:28;5.22;;;2.97;;
21927;SDS011;11128;51.096;17.190;2023-05-14T14:43:30;5.93;;;3.20;;
21927;SDS011;11128;51.096;17.190;2023-05-14T14:48:32;5.03;;;3.25;;
21927;SDS011;11128;51.096;17.190;2023-05-14T14:53:37;5.22;;;3.05;;
21927;SDS011;11128;51.096;17.190;2023-05-14T14:58:40;5.65;;;3.17;;
21927;SDS011;11128;51.096;17.190;2023-05-14T15:03:41;5.50;;;2.88;;
21927;SDS011;11128;51.096;17.190;2023-05-14T15:08:45;6.88;;;3.53;;
21927;SDS011;11128;51.096;17.190;2023-05-14T15:13:46;6.72;;;4.00;;
21927;SDS011;11128;51.096;17.190;2023-05-14T15:18:47;6.30;;;3.70;;
21927;SDS011;11128;51.096;17.190;2023-05-14T15:23:48;8.05;;;4.03;;
21927;SDS011;11128;51.096;17.190;2023-05-14T15:28:50;8.40;;;4.63;;
21927;SDS011;11128;51.096;17.190;2023-05-14T15:33:52;6.50;;;3.90;;
21927;SDS011;11128;51.096;17.190;2023-05-14T15:38:55;6.50;;;4.13;;
21927;SDS011;11128;51.096;17.190;2023-05-14T15:43:56;6.05;;;4.10;;
21927;SDS011;11128;51.096;17.190;2023-05-14T15:48:58;6.40;;;4.30;;
21927;SDS011;11128;51.096;17.190;2023-05-14T15:54:00;5.45;;;3.90;;
21927;SDS011;11128;51.096;17.190;2023-05-14T15:59:01;6.65;;;4.10;;
21927;SDS011;11128;51.096;17.190;2023-05-14T16:04:02;5.72;;;3.47;;
21927;SDS011;11128;51.096;17.190;2023-05-14T16:09:04;7.20;;;3.90;;
21927;SDS011;11128;51.096;17.190;2023-05-14T16:14:05;7.20;;;4.63;;
21927;SDS011;11128;51.096;17.190;2023-05-14T16:19:06;7.30;;;4.32;;
21927;SDS011;11128;51.096;17.190;2023-05-14T16:24:08;9.82;;;4.30;;
21927;SDS011;11128;51.096;17.190;2023-05-14T16:29:09;6.13;;;4.50;;
21927;SDS011;11128;51.096;17.190;2023-05-14T16:34:10;6.30;;;4.55;;
21927;SDS011;11128;51.096;17.190;2023-05-14T16:39:12;7.75;;;4.35;;
21927;SDS011;11128;51.096;17.190;2023-05-14T16:44:13;7.40;;;4.63;;
21927;SDS011;11128;51.096;17.190;2023-05-14T16:49:14;7.50;;;4.20;;
21927;SDS011;11128;51.096;17.190;2023-05-14T16:54:16;7.32;;;4.80;;
21927;SDS011;11128;51.096;17.190;2023-05-14T16:59:17;6.28;;;4.13;;
21927;SDS011;11128;51.096;17.190;2023-05-14T17:04:18;6.82;;;4.60;;
21927;SDS011;11128;51.096;17.190;2023-05-14T17:09:19;6.45;;;4.30;;
21927;SDS011;11128;51.096;17.190;2023-05-14T17:14:21;8.45;;;4.35;;
21927;SDS011;11128;51.096;17.190;2023-05-14T17:19:22;7.82;;;3.92;;
21927;SDS011;11128;51.096;17.190;2023-05-14T17:24:23;10.00;;;5.03;;
21927;SDS011;11128;51.096;17.190;2023-05-14T17:29:25;5.95;;;4.55;;
21927;SDS011;11128;51.096;17.190;2023-05-14T17:34:26;6.45;;;4.22;;
21927;SDS011;11128;51.096;17.190;2023-05-14T17:39:27;5.47;;;4.38;;
21927;SDS011;11128;51.096;17.190;2023-05-14T17:44:28;10.30;;;5.28;;
21927;SDS011;11128;51.096;17.190;2023-05-14T17:49:30;9.55;;;5.10;;
21927;SDS011;11128;51.096;17.190;2023-05-14T17:54:31;10.65;;;5.38;;
21927;SDS011;11128;51.096;17.190;2023-05-14T17:59:32;7.72;;;5.10;;
21927;SDS011;11128;51.096;17.190;2023-05-14T18:04:34;13.98;;;6.10;;
21927;SDS011;11128;51.096;17.190;2023-05-14T18:09:35;8.07;;;5.85;;
21927;SDS011;11128;51.096;17.190;2023-05-14T18:14:36;8.13;;;5.25;;
21927;SDS011;11128;51.096;17.190;2023-05-14T18:19:37;10.45;;;4.82;;
21927;SDS011;11128;51.096;17.190;2023-05-14T18:24:40;7.05;;;5.13;;
21927;SDS011;11128;51.096;17.190;2023-05-14T18:29:43;9.82;;;5.70;;
21927;SDS011;11128;51.096;17.190;2023-05-14T18:34:45;12.75;;;5.70;;
21927;SDS011;11128;51.096;17.190;2023-05-14T18:39:47;11.20;;;6.10;;
21927;SDS011;11128;51.096;17.190;2023-05-14T18:44:48;8.25;;;6.03;;
21927;SDS011;11128;51.096;17.190;2023-05-14T18:49:49;6.50;;;5.07;;
21927;SDS011;11128;51.096;17.190;2023-05-14T18:54:54;8.18;;;5.05;;
21927;SDS011;11128;51.096;17.190;2023-05-14T18:59:56;7.07;;;4.90;;
21927;SDS011;11128;51.096;17.190;2023-05-14T19:04:57;8.13;;;5.07;;
21927;SDS011;11128;51.096;17.190;2023-05-14T19:09:58;19.02;;;9.63;;
21927;SDS011;11128;51.096;17.190;2023-05-14T19:15:00;36.45;;;18.50;;
21927;SDS011;11128;51.096;17.190;2023-05-14T19:20:02;19.88;;;11.43;;
21927;SDS011;11128;51.096;17.190;2023-05-14T19:25:04;22.13;;;12.55;;
21927;SDS011;11128;51.096;17.190;2023-05-14T19:30:06;9.35;;;5.07;;
21927;SDS011;11128;51.096;17.190;2023-05-14T19:35:09;10.43;;;5.82;;
21927;SDS011;11128;51.096;17.190;2023-05-14T19:40:11;7.97;;;4.05;;
21927;SDS011;11128;51.096;17.190;2023-05-14T19:45:12;7.65;;;4.07;;
21927;SDS011;11128;51.096;17.190;2023-05-14T19:50:13;7.57;;;4.47;;
21927;SDS011;11128;51.096;17.190;2023-05-14T19:55:20;7.63;;;5.35;;
21927;SDS011;11128;51.096;17.190;2023-05-14T20:00:21;7.63;;;5.55;;
21927;SDS011;11128;51.096;17.190;2023-05-14T20:05:22;7.05;;;4.50;;
21927;SDS011;11128;51.096;17.190;2023-05-14T20:10:25;7.95;;;5.10;;
21927;SDS011;11128;51.096;17.190;2023-05-14T20:15:26;7.93;;;5.03;;
21927;SDS011;11128;51.096;17.190;2023-05-14T20:20:28;6.85;;;4.85;;
21927;SDS011;11128;51.096;17.190;2023-05-14T20:25:29;6.03;;;4.72;;
21927;SDS011;11128;51.096;17.190;2023-05-14T20:30:32;10.10;;;5.28;;
21927;SDS011;11128;51.096;17.190;2023-05-14T20:35:33;8.27;;;5.18;;
21927;SDS011;11128;51.096;17.190;2023-05-14T20:40:34;8.02;;;6.07;;
21927;SDS011;11128;51.096;17.190;2023-05-14T20:45:36;29.73;;;12.48;;
21927;SDS011;11128;51.096;17.190;2023-05-14T20:50:38;11.45;;;6.85;;
21927;SDS011;11128;51.096;17.190;2023-05-14T20:55:39;11.23;;;7.13;;
21927;SDS011;11128;51.096;17.190;2023-05-14T21:00:41;13.52;;;6.93;;
21927;SDS011;11128;51.096;17.190;2023-05-14T21:05:42;7.82;;;6.22;;
21927;SDS011;11128;51.096;17.190;2023-05-14T21:10:44;9.57;;;7.03;;
21927;SDS011;11128;51.096;17.190;2023-05-14T21:15:45;11.30;;;7.30;;
21927;SDS011;11128;51.096;17.190;2023-05-14T21:20:46;12.45;;;7.60;;
21927;SDS011;11128;51.096;17.190;2023-05-14T21:25:48;11.07;;;7.40;;
21927;SDS011;11128;51.096;17.190;2023-05-14T21:30:49;11.52;;;7.68;;
21927;SDS011;11128;51.096;17.190;2023-05-14T21:35:50;13.80;;;7.60;;
21927;SDS011;11128;51.096;17.190;2023-05-14T21:40:52;13.80;;;7.90;;
21927;SDS011;11128;51.096;17.190;2023-05-14T21:45:53;13.75;;;7.80;;
21927;SDS011;11128;51.096;17.190;2023-05-14T21:50:55;10.65;;;7.75;;
21927;SDS011;11128;51.096;17.190;2023-05-14T21:55:57;10.90;;;8.05;;
21927;SDS011;11128;51.096;17.190;2023-05-14T22:00:58;9.55;;;6.55;;
21927;SDS011;11128;51.096;17.190;2023-05-14T22:05:59;8.85;;;6.22;;
21927;SDS011;11128;51.096;17.190;2023-05-14T22:11:02;11.23;;;7.50;;
21927;SDS011;11128;51.096;17.190;2023-05-14T22:16:03;10.02;;;7.70;;
21927;SDS011;11128;51.096;17.190;2023-05-14T22:21:05;9.48;;;7.35;;
21927;SDS011;11128;51.096;17.190;2023-05-14T22:26:06;12.95;;;8.00;;
21927;SDS011;11128;51.096;17.190;2023-05-14T22:31:07;11.25;;;8.00;;
21927;SDS011;11128;51.096;17.190;2023-05-14T22:36:09;10.90;;;7.88;;
21927;SDS011;11128;51.096;17.190;2023-05-14T22:41:10;11.23;;;7.38;;
21927;SDS011;11128;51.096;17.190;2023-05-14T22:46:12;12.65;;;8.25;;
21927;SDS011;11128;51.096;17.190;2023-05-14T22:51:13;10.50;;;7.32;;
21927;SDS011;11128;51.096;17.190;2023-05-14T22:56:15;12.55;;;7.80;;
21927;SDS011;11128;51.096;17.190;2023-05-14T23:01:17;10.63;;;7.88;;
21927;SDS011;11128;51.096;17.190;2023-05-14T23:06:18;12.30;;;8.27;;
21927;SDS011;11128;51.096;17.190;2023-05-14T23:11:20;11.82;;;7.80;;
21927;SDS011;11128;51.096;17.190;2023-05-14T23:16:21;12.32;;;8.73;;
21927;SDS011;11128;51.096;17.190;2023-05-14T23:21:23;12.23;;;8.43;;
21927;SDS011;11128;51.096;17.190;2023-05-14T23:26:24;13.13;;;7.60;;
21927;SDS011;11128;51.096;17.190;2023-05-14T23:31:25;11.68;;;8.43;;
21927;SDS011;11128;51.096;17.190;2023-05-14T23:36:26;13.77;;;8.57;;
21927;SDS011;11128;51.096;17.190;2023-05-14T23:41:30;13.32;;;8.63;;
21927;SDS011;11128;51.096;17.190;2023-05-14T23:46:32;12.60;;;8.88;;
21927;SDS011;11128;51.096;17.190;2023-05-14T23:51:33;13.25;;;9.05;;
21927;SDS011;11128;51.096;17.190;2023-05-14T23:56:36;11.43;;;8.30;;
